Share

Bagdad, AZ

1:55 AM MST on April 25, 2014 (GMT -0700)
RAWS GOODWIN MESA AZ US (MQGDA3) Elev 4200 ft | 34.76 °N, 113.30 °W | Change Station

Current weather conditions updated 38 minutes ago

Clear
Clear
51 °F
Feels Like 51 °F
N
3
Wind Variable Wind from WNW
Gusts 4.0 mph
Sunrise 5:49 AM
Sunset 7:12 PM
Moon Waning Crescent

Today is forecast to be nearly the same temperature as yesterday.

Pressure 29.82 in
Visibility 10.0 miles
Clouds Clear
Dew Point 5 °F
Humidity 15%
Rainfall 0.00 in
Snow Depth Not available.
UV 0 out of 16
Pollen 8.30 out of 12
Air Quality Not available.
Flu Activity Local Activity
METAR KPRC 250753Z AUTO 21008KT 10SM CLR 11/M12 A3001 RMK AO2 SLP096 T01111117

More Conditions Fewer Conditions

Pressure 29.82 in
Visibility 10.0 miles
Clouds Clear
Dew Point 5 °F
Humidity 15%
Rainfall 0.00 in
Snow Depth Not available.
UV 0 out of 16
Pollen 8.30 out of 12
Air Quality Not available.
Flu Activity Local Activity
METAR KPRC 250753Z AUTO 21008KT 10SM CLR 11/M12 A3001 RMK AO2 SLP096 T01111117

More Conditions Fewer Conditions

10-Day Weather Forecast

Almanac

Astronomy

Apr. 25, 2014 Rise Set
Actual Time 5:49 AM MST 7:12 PM MST
Civil Twilight 5:22 AM MST 7:39 PM MST
Nautical Twilight 4:50 AM MST 8:11 PM MST
Astronomical Twilight 4:17 AM MST 8:44 PM MST
Moon 3:29 AM MST 3:48 PM MST
Length of Visible Light 14h 16m
Length of Day
13h 23m
Tomorrow will be 1m 56s longer.
Waning Crescent, 18% of the Moon is Illuminated
Today
Waning Crescent
Apr 29
New
May 6
First Quarter
May 14
Full
May 21
Last Quarter

Today's Extremes

State Highs State Lows

Community

  • Deer in evening light
    Deer in evening light
  • Critter
    Critter
  • Jone Runs Falls
    Jone Runs Falls
  • Easter in Shenandoah National Park
    Easter in Shenandoah National Park
  • Sunset at Apalachicola Bay, Florida
    Sunset at Apalachicola Bay, Florida

WunderPhotos

Upload Photos

1,704,874 photos uploaded!

WunderBlogs® & News

Nearby

Snow Depth

Station Depth Elevation
White Horse Lake 0 in 7180 ft
Snowslide Canyon 1 in 9730 ft
Mormon Mountain 0 in 7500 ft
Baker Butte 0 in 7300 ft
Happy Jack 0 in 7630 ft

Coastal Water Temperatures

Place Temperature
No Stations Reporting

Earthquake Activity

City Distance Mag. Time & Date
No recent earthquake activity has been reported nearby.
Minimum magnitude displayed is 2.5.

Nearby Weather Stations

Station Location Temp. Dew Point Humidity Wind Precip. Elev Updated Type
HADS BAGDAD 2NW AZ, Bagdad, AZ 56 °F - - North  at  - 0.00 in / hr 4117 ft 1:15 AM MST MADIS
RAWS GOODWIN MESA AZ, Bagdad, AZ 51 °F 5 °F 15% WNW  at  3 mph 0.00 in / hr 4200 ft 1:17 AM MST MADIS

Show More Stations Show Fewer Stations

What do you think?

We're not finished. Please let us know what you like, what you don't like, and what you are still missing.